sensor_id;sensor_type;location;lat;lon;timestamp;pressure;altitude;pressure_sealevel;temperature;humidity
24486;BME280;13449;49.374;8.584;2023-04-27T00:02:26;100748.84;;;5.63;100.00
24486;BME280;13449;49.374;8.584;2023-04-27T00:04:53;100734.81;;;5.84;100.00
24486;BME280;13449;49.374;8.584;2023-04-27T00:07:22;100740.69;;;5.37;100.00
24486;BME280;13449;49.374;8.584;2023-04-27T00:09:49;100732.16;;;5.35;100.00
24486;BME280;13449;49.374;8.584;2023-04-27T00:12:17;100729.53;;;5.26;100.00
24486;BME280;13449;49.374;8.584;2023-04-27T00:14:43;100729.50;;;5.16;100.00
24486;BME280;13449;49.374;8.584;2023-04-27T00:17:10;100728.56;;;5.17;100.00
24486;BME280;13449;49.374;8.584;2023-04-27T00:19:36;100725.81;;;5.19;100.00
24486;BME280;13449;49.374;8.584;2023-04-27T00:22:03;100725.00;;;5.18;100.00
24486;BME280;13449;49.374;8.584;2023-04-27T00:24:29;100720.75;;;5.17;100.00
24486;BME280;13449;49.374;8.584;2023-04-27T00:26:56;100724.28;;;5.16;100.00
24486;BME280;13449;49.374;8.584;2023-04-27T00:29:23;100718.97;;;5.27;100.00
24486;BME280;13449;49.374;8.584;2023-04-27T00:31:49;100725.28;;;5.25;100.00
24486;BME280;13449;49.374;8.584;2023-04-27T00:34:16;100728.84;;;5.14;100.00
24486;BME280;13449;49.374;8.584;2023-04-27T00:36:42;100713.03;;;5.15;100.00
24486;BME280;13449;49.374;8.584;2023-04-27T00:39:09;100720.31;;;5.12;100.00
24486;BME280;13449;49.374;8.584;2023-04-27T00:41:38;100718.22;;;5.06;100.00
24486;BME280;13449;49.374;8.584;2023-04-27T00:44:07;100711.47;;;5.03;100.00
24486;BME280;13449;49.374;8.584;2023-04-27T00:46:34;100717.97;;;5.09;100.00
24486;BME280;13449;49.374;8.584;2023-04-27T00:49:00;100716.16;;;5.09;100.00
24486;BME280;13449;49.374;8.584;2023-04-27T00:51:30;100712.72;;;4.99;100.00
24486;BME280;13449;49.374;8.584;2023-04-27T00:53:57;100712.31;;;4.94;100.00
24486;BME280;13449;49.374;8.584;2023-04-27T00:56:25;100718.66;;;5.11;100.00
24486;BME280;13449;49.374;8.584;2023-04-27T00:58:54;100719.56;;;5.00;100.00
24486;BME280;13449;49.374;8.584;2023-04-27T01:01:20;100726.47;;;5.01;100.00
24486;BME280;13449;49.374;8.584;2023-04-27T01:03:49;100726.44;;;4.91;100.00
24486;BME280;13449;49.374;8.584;2023-04-27T01:06:18;100728.63;;;4.86;100.00
24486;BME280;13449;49.374;8.584;2023-04-27T01:08:47;100726.25;;;4.83;100.00
24486;BME280;13449;49.374;8.584;2023-04-27T01:11:13;100728.47;;;4.78;100.00
24486;BME280;13449;49.374;8.584;2023-04-27T01:13:40;100736.25;;;4.68;100.00
24486;BME280;13449;49.374;8.584;2023-04-27T01:16:06;100736.06;;;4.60;100.00
24486;BME280;13449;49.374;8.584;2023-04-27T01:18:33;100736.22;;;4.59;100.00
24486;BME280;13449;49.374;8.584;2023-04-27T01:21:00;100744.41;;;4.54;100.00
24486;BME280;13449;49.374;8.584;2023-04-27T01:23:29;100733.97;;;4.54;100.00
24486;BME280;13449;49.374;8.584;2023-04-27T01:25:58;100738.06;;;4.47;100.00
24486;BME280;13449;49.374;8.584;2023-04-27T01:28:26;100739.91;;;4.56;100.00
24486;BME280;13449;49.374;8.584;2023-04-27T01:30:53;100733.81;;;4.46;100.00
24486;BME280;13449;49.374;8.584;2023-04-27T01:33:20;100734.31;;;4.40;100.00
24486;BME280;13449;49.374;8.584;2023-04-27T01:35:49;100730.91;;;4.39;100.00
24486;BME280;13449;49.374;8.584;2023-04-27T01:38:16;100734.00;;;4.33;100.00
24486;BME280;13449;49.374;8.584;2023-04-27T01:40:43;100730.59;;;4.33;100.00
24486;BME280;13449;49.374;8.584;2023-04-27T01:43:09;100731.34;;;4.24;100.00
24486;BME280;13449;49.374;8.584;2023-04-27T01:45:36;100736.69;;;4.22;100.00
24486;BME280;13449;49.374;8.584;2023-04-27T01:48:03;100731.72;;;4.19;100.00
24486;BME280;13449;49.374;8.584;2023-04-27T01:50:29;100729.91;;;4.10;100.00
24486;BME280;13449;49.374;8.584;2023-04-27T01:52:58;100729.75;;;4.11;100.00
24486;BME280;13449;49.374;8.584;2023-04-27T01:55:30;100721.94;;;4.11;100.00
24486;BME280;13449;49.374;8.584;2023-04-27T01:58:14;100732.94;;;4.15;100.00
24486;BME280;13449;49.374;8.584;2023-04-27T02:00:40;100722.06;;;4.10;100.00
24486;BME280;13449;49.374;8.584;2023-04-27T02:03:09;100727.41;;;4.08;100.00
24486;BME280;13449;49.374;8.584;2023-04-27T02:05:53;100727.66;;;4.26;100.00
24486;BME280;13449;49.374;8.584;2023-04-27T02:08:19;100732.31;;;4.22;100.00
24486;BME280;13449;49.374;8.584;2023-04-27T02:10:46;100726.56;;;4.29;100.00
24486;BME280;13449;49.374;8.584;2023-04-27T02:13:12;100733.03;;;4.34;100.00
24486;BME280;13449;49.374;8.584;2023-04-27T02:15:39;100730.75;;;4.41;100.00
24486;BME280;13449;49.374;8.584;2023-04-27T02:18:06;100737.94;;;4.49;100.00
24486;BME280;13449;49.374;8.584;2023-04-27T02:20:32;100727.94;;;4.54;100.00
24486;BME280;13449;49.374;8.584;2023-04-27T02:22:59;100734.56;;;4.67;100.00
24486;BME280;13449;49.374;8.584;2023-04-27T02:25:27;100739.16;;;4.75;100.00
24486;BME280;13449;49.374;8.584;2023-04-27T02:37:09;100743.09;;;5.10;100.00
24486;BME280;13449;49.374;8.584;2023-04-27T02:39:36;100738.47;;;5.13;100.00
24486;BME280;13449;49.374;8.584;2023-04-27T02:45:09;100751.13;;;5.28;100.00
24486;BME280;13449;49.374;8.584;2023-04-27T02:47:54;100746.75;;;5.38;100.00
24486;BME280;13449;49.374;8.584;2023-04-27T02:50:20;100755.00;;;5.33;100.00
24486;BME280;13449;49.374;8.584;2023-04-27T02:52:47;100755.13;;;5.42;100.00
24486;BME280;13449;49.374;8.584;2023-04-27T02:55:14;100754.88;;;5.45;100.00
24486;BME280;13449;49.374;8.584;2023-04-27T02:57:41;100750.34;;;5.56;100.00
24486;BME280;13449;49.374;8.584;2023-04-27T03:00:08;100749.94;;;5.61;100.00
24486;BME280;13449;49.374;8.584;2023-04-27T03:05:59;100755.44;;;5.68;100.00
24486;BME280;13449;49.374;8.584;2023-04-27T03:08:25;100748.69;;;5.65;100.00
24486;BME280;13449;49.374;8.584;2023-04-27T03:20:42;100746.25;;;5.93;100.00
24486;BME280;13449;49.374;8.584;2023-04-27T03:23:08;100751.75;;;5.90;100.00
24486;BME280;13449;49.374;8.584;2023-04-27T03:25:35;100754.50;;;5.98;100.00
24486;BME280;13449;49.374;8.584;2023-04-27T03:28:01;100756.84;;;6.01;100.00
24486;BME280;13449;49.374;8.584;2023-04-27T03:30:28;100753.53;;;6.08;100.00
24486;BME280;13449;49.374;8.584;2023-04-27T03:32:54;100760.84;;;6.05;100.00
24486;BME280;13449;49.374;8.584;2023-04-27T03:35:21;100759.72;;;5.98;100.00
24486;BME280;13449;49.374;8.584;2023-04-27T03:37:48;100762.75;;;6.03;100.00
24486;BME280;13449;49.374;8.584;2023-04-27T03:40:14;100756.28;;;6.07;100.00
24486;BME280;13449;49.374;8.584;2023-04-27T03:42:41;100759.19;;;6.04;100.00
24486;BME280;13449;49.374;8.584;2023-04-27T03:45:09;100751.22;;;6.05;100.00
24486;BME280;13449;49.374;8.584;2023-04-27T03:47:37;100737.69;;;6.10;100.00
24486;BME280;13449;49.374;8.584;2023-04-27T03:50:04;100737.97;;;6.17;100.00
24486;BME280;13449;49.374;8.584;2023-04-27T03:52:33;100734.81;;;6.13;100.00
24486;BME280;13449;49.374;8.584;2023-04-27T03:54:59;100750.75;;;6.20;100.00
24486;BME280;13449;49.374;8.584;2023-04-27T03:57:28;100752.97;;;6.24;100.00
24486;BME280;13449;49.374;8.584;2023-04-27T03:59:57;100744.53;;;6.40;100.00
24486;BME280;13449;49.374;8.584;2023-04-27T04:02:23;100750.13;;;6.08;100.00
24486;BME280;13449;49.374;8.584;2023-04-27T04:04:50;100742.81;;;6.02;100.00
24486;BME280;13449;49.374;8.584;2023-04-27T04:07:17;100738.81;;;5.98;100.00
24486;BME280;13449;49.374;8.584;2023-04-27T04:09:43;100748.59;;;6.05;100.00
24486;BME280;13449;49.374;8.584;2023-04-27T04:12:10;100750.22;;;6.06;100.00
24486;BME280;13449;49.374;8.584;2023-04-27T04:14:36;100750.22;;;6.16;100.00
24486;BME280;13449;49.374;8.584;2023-04-27T04:17:03;100757.53;;;6.03;100.00
24486;BME280;13449;49.374;8.584;2023-04-27T04:19:29;100751.34;;;6.04;100.00
24486;BME280;13449;49.374;8.584;2023-04-27T04:21:56;100747.22;;;6.11;100.00
24486;BME280;13449;49.374;8.584;2023-04-27T04:24:23;100743.75;;;6.01;100.00
24486;BME280;13449;49.374;8.584;2023-04-27T04:26:49;100751.47;;;6.12;100.00
24486;BME280;13449;49.374;8.584;2023-04-27T04:29:16;100757.53;;;6.13;100.00
24486;BME280;13449;49.374;8.584;2023-04-27T04:31:42;100761.22;;;6.20;100.00
24486;BME280;13449;49.374;8.584;2023-04-27T04:34:09;100758.88;;;6.17;100.00
24486;BME280;13449;49.374;8.584;2023-04-27T04:36:39;100756.41;;;6.25;100.00
24486;BME280;13449;49.374;8.584;2023-04-27T04:39:05;100754.47;;;6.17;100.00
24486;BME280;13449;49.374;8.584;2023-04-27T04:41:32;100764.38;;;6.23;100.00
24486;BME280;13449;49.374;8.584;2023-04-27T04:43:58;100768.66;;;6.34;100.00
24486;BME280;13449;49.374;8.584;2023-04-27T04:46:25;100763.56;;;6.32;100.00
24486;BME280;13449;49.374;8.584;2023-04-27T04:48:52;100767.00;;;6.33;100.00
24486;BME280;13449;49.374;8.584;2023-04-27T04:51:20;100767.69;;;6.35;100.00
24486;BME280;13449;49.374;8.584;2023-04-27T04:53:46;100772.34;;;6.41;100.00
24486;BME280;13449;49.374;8.584;2023-04-27T04:56:13;100766.00;;;6.53;100.00
24486;BME280;13449;49.374;8.584;2023-04-27T04:58:40;100770.63;;;6.60;100.00
24486;BME280;13449;49.374;8.584;2023-04-27T05:01:09;100775.06;;;6.59;100.00
24486;BME280;13449;49.374;8.584;2023-04-27T05:03:36;100772.84;;;6.64;100.00
24486;BME280;13449;49.374;8.584;2023-04-27T05:06:02;100774.47;;;6.65;100.00
24486;BME280;13449;49.374;8.584;2023-04-27T05:08:29;100774.69;;;6.82;100.00
24486;BME280;13449;49.374;8.584;2023-04-27T05:10:56;100776.38;;;6.83;100.00
24486;BME280;13449;49.374;8.584;2023-04-27T05:13:22;100769.97;;;6.95;100.00
24486;BME280;13449;49.374;8.584;2023-04-27T05:15:54;100769.97;;;6.95;100.00
24486;BME280;13449;49.374;8.584;2023-04-27T05:18:21;100768.13;;;7.05;100.00
24486;BME280;13449;49.374;8.584;2023-04-27T05:20:48;100773.97;;;6.99;100.00
24486;BME280;13449;49.374;8.584;2023-04-27T05:23:15;100778.88;;;7.12;100.00
24486;BME280;13449;49.374;8.584;2023-04-27T05:25:41;100779.47;;;7.23;100.00
24486;BME280;13449;49.374;8.584;2023-04-27T05:28:11;100779.06;;;7.28;100.00
24486;BME280;13449;49.374;8.584;2023-04-27T05:30:38;100783.56;;;7.36;100.00
24486;BME280;13449;49.374;8.584;2023-04-27T05:33:04;100796.16;;;7.50;100.00
24486;BME280;13449;49.374;8.584;2023-04-27T05:35:32;100785.94;;;7.47;100.00
24486;BME280;13449;49.374;8.584;2023-04-27T05:37:59;100801.38;;;7.50;100.00
24486;BME280;13449;49.374;8.584;2023-04-27T05:40:25;100790.19;;;7.58;100.00
24486;BME280;13449;49.374;8.584;2023-04-27T05:42:52;100798.28;;;7.64;100.00
24486;BME280;13449;49.374;8.584;2023-04-27T05:45:19;100799.53;;;7.60;100.00
24486;BME280;13449;49.374;8.584;2023-04-27T05:47:46;100791.22;;;7.83;100.00
24486;BME280;13449;49.374;8.584;2023-04-27T05:50:13;100798.88;;;7.94;100.00
24486;BME280;13449;49.374;8.584;2023-04-27T05:52:39;100801.94;;;7.89;100.00
24486;BME280;13449;49.374;8.584;2023-04-27T05:55:06;100800.81;;;7.92;100.00
24486;BME280;13449;49.374;8.584;2023-04-27T05:57:33;100800.75;;;8.19;100.00
24486;BME280;13449;49.374;8.584;2023-04-27T06:00:03;100798.41;;;8.16;100.00
24486;BME280;13449;49.374;8.584;2023-04-27T06:02:35;100806.59;;;8.13;100.00
24486;BME280;13449;49.374;8.584;2023-04-27T06:05:04;100808.16;;;8.42;100.00
24486;BME280;13449;49.374;8.584;2023-04-27T06:07:32;100806.59;;;8.57;100.00
24486;BME280;13449;49.374;8.584;2023-04-27T06:10:02;100809.63;;;8.71;100.00
24486;BME280;13449;49.374;8.584;2023-04-27T06:12:30;100804.09;;;8.74;100.00
24486;BME280;13449;49.374;8.584;2023-04-27T06:14:57;100811.03;;;8.83;100.00
24486;BME280;13449;49.374;8.584;2023-04-27T06:17:27;100813.66;;;8.83;100.00
24486;BME280;13449;49.374;8.584;2023-04-27T06:19:53;100815.97;;;8.86;100.00
24486;BME280;13449;49.374;8.584;2023-04-27T06:22:20;100814.34;;;8.85;100.00
24486;BME280;13449;49.374;8.584;2023-04-27T06:24:46;100814.47;;;8.83;100.00
24486;BME280;13449;49.374;8.584;2023-04-27T06:27:13;100817.63;;;9.21;100.00
24486;BME280;13449;49.374;8.584;2023-04-27T06:29:44;100822.94;;;9.38;100.00
24486;BME280;13449;49.374;8.584;2023-04-27T06:32:11;100818.56;;;9.54;100.00
24486;BME280;13449;49.374;8.584;2023-04-27T06:34:37;100830.59;;;9.73;100.00
24486;BME280;13449;49.374;8.584;2023-04-27T06:37:06;100827.91;;;9.49;100.00
24486;BME280;13449;49.374;8.584;2023-04-27T06:39:34;100834.19;;;9.56;100.00
24486;BME280;13449;49.374;8.584;2023-04-27T06:42:02;100838.69;;;9.29;100.00
24486;BME280;13449;49.374;8.584;2023-04-27T06:44:33;100832.03;;;9.51;100.00
24486;BME280;13449;49.374;8.584;2023-04-27T06:47:03;100835.38;;;9.70;100.00
24486;BME280;13449;49.374;8.584;2023-04-27T06:49:31;100833.56;;;9.70;100.00
24486;BME280;13449;49.374;8.584;2023-04-27T06:52:00;100836.22;;;9.87;100.00
24486;BME280;13449;49.374;8.584;2023-04-27T06:54:29;100835.41;;;9.86;100.00
24486;BME280;13449;49.374;8.584;2023-04-27T06:56:55;100840.81;;;9.76;100.00
24486;BME280;13449;49.374;8.584;2023-04-27T06:59:22;100844.78;;;9.89;100.00
24486;BME280;13449;49.374;8.584;2023-04-27T07:01:51;100841.69;;;10.10;100.00
24486;BME280;13449;49.374;8.584;2023-04-27T07:04:20;100837.88;;;10.20;100.00
24486;BME280;13449;49.374;8.584;2023-04-27T07:06:47;100845.47;;;10.23;100.00
24486;BME280;13449;49.374;8.584;2023-04-27T07:09:14;100840.22;;;10.72;100.00
24486;BME280;13449;49.374;8.584;2023-04-27T07:11:52;100836.69;;;10.88;100.00
24486;BME280;13449;49.374;8.584;2023-04-27T07:14:19;100830.03;;;10.45;100.00
24486;BME280;13449;49.374;8.584;2023-04-27T07:16:46;100846.16;;;10.58;100.00
24486;BME280;13449;49.374;8.584;2023-04-27T07:19:14;100846.81;;;10.36;100.00
24486;BME280;13449;49.374;8.584;2023-04-27T07:21:44;100841.53;;;10.76;100.00
24486;BME280;13449;49.374;8.584;2023-04-27T07:24:10;100834.31;;;11.18;100.00
24486;BME280;13449;49.374;8.584;2023-04-27T07:26:37;100840.22;;;11.28;100.00
24486;BME280;13449;49.374;8.584;2023-04-27T07:29:08;100843.13;;;11.41;100.00
24486;BME280;13449;49.374;8.584;2023-04-27T07:31:53;100837.25;;;11.31;100.00
24486;BME280;13449;49.374;8.584;2023-04-27T07:34:20;100838.41;;;11.29;100.00
24486;BME280;13449;49.374;8.584;2023-04-27T07:36:47;100843.00;;;11.35;100.00
24486;BME280;13449;49.374;8.584;2023-04-27T07:39:15;100839.66;;;11.41;100.00
24486;BME280;13449;49.374;8.584;2023-04-27T07:41:42;100839.25;;;11.60;100.00
24486;BME280;13449;49.374;8.584;2023-04-27T07:44:08;100841.03;;;11.29;99.29
24486;BME280;13449;49.374;8.584;2023-04-27T07:46:35;100842.31;;;11.33;100.00
24486;BME280;13449;49.374;8.584;2023-04-27T07:49:05;100839.00;;;11.39;100.00
24486;BME280;13449;49.374;8.584;2023-04-27T07:51:31;100834.97;;;11.82;100.00
24486;BME280;13449;49.374;8.584;2023-04-27T07:53:59;100834.97;;;11.90;100.00
24486;BME280;13449;49.374;8.584;2023-04-27T07:56:28;100825.16;;;11.68;100.00
24486;BME280;13449;49.374;8.584;2023-04-27T07:58:54;100839.19;;;11.68;98.05
24486;BME280;13449;49.374;8.584;2023-04-27T08:01:21;100833.31;;;12.50;100.00
24486;BME280;13449;49.374;8.584;2023-04-27T08:03:50;100833.94;;;12.37;100.00
24486;BME280;13449;49.374;8.584;2023-04-27T08:06:17;100838.63;;;11.81;91.93
24486;BME280;13449;49.374;8.584;2023-04-27T08:08:45;100831.63;;;12.34;100.00
24486;BME280;13449;49.374;8.584;2023-04-27T08:11:13;100825.16;;;12.75;95.32
24486;BME280;13449;49.374;8.584;2023-04-27T08:13:39;100827.81;;;12.37;86.55
24486;BME280;13449;49.374;8.584;2023-04-27T08:16:06;100826.72;;;13.14;97.18
24486;BME280;13449;49.374;8.584;2023-04-27T08:18:33;100827.63;;;13.06;93.72
24486;BME280;13449;49.374;8.584;2023-04-27T08:20:59;100822.34;;;13.72;94.24
24486;BME280;13449;49.374;8.584;2023-04-27T08:23:26;100820.13;;;13.97;77.10
24486;BME280;13449;49.374;8.584;2023-04-27T08:25:53;100822.22;;;13.80;87.14
24486;BME280;13449;49.374;8.584;2023-04-27T08:28:20;100811.53;;;14.59;80.66
24486;BME280;13449;49.374;8.584;2023-04-27T08:30:49;100815.31;;;14.50;66.00
24486;BME280;13449;49.374;8.584;2023-04-27T08:33:16;100813.59;;;13.93;66.68
24486;BME280;13449;49.374;8.584;2023-04-27T08:35:43;100812.88;;;14.27;57.46
24486;BME280;13449;49.374;8.584;2023-04-27T08:38:09;100808.88;;;14.59;99.43
24486;BME280;13449;49.374;8.584;2023-04-27T08:40:41;100812.38;;;14.66;55.72
24486;BME280;13449;49.374;8.584;2023-04-27T08:43:08;100800.13;;;15.00;61.95
24486;BME280;13449;49.374;8.584;2023-04-27T08:45:34;100800.78;;;15.09;56.65
24486;BME280;13449;49.374;8.584;2023-04-27T08:48:01;100808.13;;;14.72;50.90
24486;BME280;13449;49.374;8.584;2023-04-27T08:50:27;100802.41;;;14.19;53.49
24486;BME280;13449;49.374;8.584;2023-04-27T08:52:55;100808.06;;;13.88;55.74
24486;BME280;13449;49.374;8.584;2023-04-27T08:55:21;100805.22;;;14.95;73.51
24486;BME280;13449;49.374;8.584;2023-04-27T08:57:56;100805.84;;;15.52;66.07
24486;BME280;13449;49.374;8.584;2023-04-27T09:00:24;100803.13;;;16.33;67.87
24486;BME280;13449;49.374;8.584;2023-04-27T09:02:51;100804.16;;;16.19;70.71
24486;BME280;13449;49.374;8.584;2023-04-27T09:05:21;100796.59;;;16.09;63.43
24486;BME280;13449;49.374;8.584;2023-04-27T09:07:59;100802.72;;;16.23;55.25
24486;BME280;13449;49.374;8.584;2023-04-27T09:10:26;100808.81;;;15.83;50.29
24486;BME280;13449;49.374;8.584;2023-04-27T09:12:59;100809.25;;;16.00;54.10
24486;BME280;13449;49.374;8.584;2023-04-27T09:15:26;100802.91;;;16.08;63.56
24486;BME280;13449;49.374;8.584;2023-04-27T09:17:55;100801.06;;;16.02;56.26
24486;BME280;13449;49.374;8.584;2023-04-27T09:20:22;100808.97;;;15.69;49.42
24486;BME280;13449;49.374;8.584;2023-04-27T09:22:51;100811.72;;;14.92;49.58
24486;BME280;13449;49.374;8.584;2023-04-27T09:25:28;100802.78;;;15.55;50.29
24486;BME280;13449;49.374;8.584;2023-04-27T09:27:56;100797.81;;;15.93;55.50
24486;BME280;13449;49.374;8.584;2023-04-27T09:30:24;100798.03;;;15.37;48.72
24486;BME280;13449;49.374;8.584;2023-04-27T09:32:59;100795.34;;;15.98;48.59
24486;BME280;13449;49.374;8.584;2023-04-27T09:35:31;100789.59;;;16.68;54.91
24486;BME280;13449;49.374;8.584;2023-04-27T09:37:59;100783.25;;;17.27;58.29
24486;BME280;13449;49.374;8.584;2023-04-27T09:40:26;100784.09;;;15.96;47.75
24486;BME280;13449;49.374;8.584;2023-04-27T09:42:56;100782.78;;;15.04;48.36
24486;BME280;13449;49.374;8.584;2023-04-27T09:45:26;100774.81;;;16.85;66.45
24486;BME280;13449;49.374;8.584;2023-04-27T09:47:52;100777.00;;;17.08;49.74
24486;BME280;13449;49.374;8.584;2023-04-27T09:50:20;100776.25;;;17.71;49.10
24486;BME280;13449;49.374;8.584;2023-04-27T09:52:49;100773.75;;;17.44;61.02
24486;BME280;13449;49.374;8.584;2023-04-27T09:55:24;100776.44;;;17.38;49.01
24486;BME280;13449;49.374;8.584;2023-04-27T09:58:05;100770.09;;;17.70;54.05
24486;BME280;13449;49.374;8.584;2023-04-27T10:03:24;100771.88;;;17.13;50.05
24486;BME280;13449;49.374;8.584;2023-04-27T10:06:44;100763.06;;;17.06;51.23
24486;BME280;13449;49.374;8.584;2023-04-27T10:09:20;100772.34;;;16.97;47.28
24486;BME280;13449;49.374;8.584;2023-04-27T10:11:50;100766.03;;;16.85;44.56
24486;BME280;13449;49.374;8.584;2023-04-27T10:14:19;100763.09;;;17.44;45.73
24486;BME280;13449;49.374;8.584;2023-04-27T10:16:51;100765.91;;;17.18;47.07
24486;BME280;13449;49.374;8.584;2023-04-27T10:19:19;100768.56;;;17.18;42.74
24486;BME280;13449;49.374;8.584;2023-04-27T10:22:04;100771.38;;;16.71;45.15
24486;BME280;13449;49.374;8.584;2023-04-27T10:24:35;100763.28;;;17.49;46.56
24486;BME280;13449;49.374;8.584;2023-04-27T10:27:10;100760.66;;;17.43;44.14
24486;BME280;13449;49.374;8.584;2023-04-27T10:29:41;100764.22;;;17.30;42.06
24486;BME280;13449;49.374;8.584;2023-04-27T10:32:18;100763.41;;;17.61;45.66
24486;BME280;13449;49.374;8.584;2023-04-27T10:35:02;100757.06;;;17.24;42.85
24486;BME280;13449;49.374;8.584;2023-04-27T10:37:40;100764.34;;;17.03;45.43
24486;BME280;13449;49.374;8.584;2023-04-27T10:40:14;100762.28;;;17.44;41.72
24486;BME280;13449;49.374;8.584;2023-04-27T10:42:46;100760.78;;;17.55;42.97
24486;BME280;13449;49.374;8.584;2023-04-27T10:45:26;100758.50;;;17.26;41.89
24486;BME280;13449;49.374;8.584;2023-04-27T10:47:59;100755.88;;;17.51;42.58
24486;BME280;13449;49.374;8.584;2023-04-27T10:50:26;100761.28;;;17.38;42.87
24486;BME280;13449;49.374;8.584;2023-04-27T10:52:53;100755.16;;;17.38;41.32
24486;BME280;13449;49.374;8.584;2023-04-27T10:55:21;100750.31;;;17.91;44.29
24486;BME280;13449;49.374;8.584;2023-04-27T10:57:49;100748.66;;;18.40;46.47
24486;BME280;13449;49.374;8.584;2023-04-27T11:00:23;100745.63;;;18.37;45.38
24486;BME280;13449;49.374;8.584;2023-04-27T11:02:57;100742.72;;;17.95;41.79
24486;BME280;13449;49.374;8.584;2023-04-27T11:05:34;100742.75;;;18.13;42.05
24486;BME280;13449;49.374;8.584;2023-04-27T11:08:09;100739.97;;;18.02;42.31
24486;BME280;13449;49.374;8.584;2023-04-27T11:10:42;100733.81;;;18.26;41.59
24486;BME280;13449;49.374;8.584;2023-04-27T11:13:11;100731.06;;;17.58;41.48
24486;BME280;13449;49.374;8.584;2023-04-27T11:15:51;100734.34;;;17.91;43.01
24486;BME280;13449;49.374;8.584;2023-04-27T11:18:22;100742.91;;;17.93;43.42
24486;BME280;13449;49.374;8.584;2023-04-27T11:20:50;100730.78;;;18.41;43.39
24486;BME280;13449;49.374;8.584;2023-04-27T11:23:22;100734.28;;;17.66;40.85
24486;BME280;13449;49.374;8.584;2023-04-27T11:25:49;100725.44;;;18.22;43.33
24486;BME280;13449;49.374;8.584;2023-04-27T11:28:17;100728.25;;;18.89;44.70
24486;BME280;13449;49.374;8.584;2023-04-27T11:30:55;100729.13;;;17.78;39.27
24486;BME280;13449;49.374;8.584;2023-04-27T11:33:21;100719.03;;;17.80;41.92
24486;BME280;13449;49.374;8.584;2023-04-27T11:35:48;100719.28;;;17.72;41.24
24486;BME280;13449;49.374;8.584;2023-04-27T11:38:15;100720.34;;;17.96;42.26
24486;BME280;13449;49.374;8.584;2023-04-27T11:40:57;100723.44;;;17.93;42.26
24486;BME280;13449;49.374;8.584;2023-04-27T11:43:27;100719.38;;;18.71;43.05
24486;BME280;13449;49.374;8.584;2023-04-27T11:45:56;100708.47;;;18.79;41.59
24486;BME280;13449;49.374;8.584;2023-04-27T11:48:28;100712.72;;;18.61;42.14
24486;BME280;13449;49.374;8.584;2023-04-27T11:50:57;100711.91;;;18.24;39.53
24486;BME280;13449;49.374;8.584;2023-04-27T11:53:36;100710.91;;;18.18;40.17
24486;BME280;13449;49.374;8.584;2023-04-27T11:56:05;100701.84;;;18.81;42.59
24486;BME280;13449;49.374;8.584;2023-04-27T11:58:34;100702.75;;;17.32;39.57
24486;BME280;13449;49.374;8.584;2023-04-27T12:01:02;100699.03;;;17.39;39.48
24486;BME280;13449;49.374;8.584;2023-04-27T12:03:29;100697.09;;;18.03;39.20
24486;BME280;13449;49.374;8.584;2023-04-27T12:05:59;100694.03;;;18.25;39.67
24486;BME280;13449;49.374;8.584;2023-04-27T12:08:46;100692.34;;;18.30;42.48
24486;BME280;13449;49.374;8.584;2023-04-27T12:11:12;100687.84;;;18.86;41.90
24486;BME280;13449;49.374;8.584;2023-04-27T12:13:39;100677.78;;;19.00;39.56
24486;BME280;13449;49.374;8.584;2023-04-27T12:16:06;100685.09;;;18.74;40.58
24486;BME280;13449;49.374;8.584;2023-04-27T12:18:33;100686.72;;;18.57;41.29
24486;BME280;13449;49.374;8.584;2023-04-27T12:20:59;100685.47;;;18.59;41.02
24486;BME280;13449;49.374;8.584;2023-04-27T12:23:28;100676.78;;;18.82;39.35
24486;BME280;13449;49.374;8.584;2023-04-27T12:25:58;100672.72;;;19.10;41.22
24486;BME280;13449;49.374;8.584;2023-04-27T12:28:24;100672.63;;;18.86;41.00
24486;BME280;13449;49.374;8.584;2023-04-27T12:30:51;100676.34;;;18.85;45.20
24486;BME280;13449;49.374;8.584;2023-04-27T12:33:18;100670.41;;;18.65;40.24
24486;BME280;13449;49.374;8.584;2023-04-27T12:35:44;100666.56;;;18.79;39.18
24486;BME280;13449;49.374;8.584;2023-04-27T12:38:13;100663.19;;;19.02;40.43
24486;BME280;13449;49.374;8.584;2023-04-27T12:40:39;100662.03;;;19.10;41.73
24486;BME280;13449;49.374;8.584;2023-04-27T12:43:07;100658.50;;;18.98;41.48
24486;BME280;13449;49.374;8.584;2023-04-27T12:45:34;100649.41;;;19.17;44.40
24486;BME280;13449;49.374;8.584;2023-04-27T12:48:01;100656.31;;;19.36;43.66
24486;BME280;13449;49.374;8.584;2023-04-27T12:50:35;100657.50;;;18.99;39.13
24486;BME280;13449;49.374;8.584;2023-04-27T12:53:03;100656.72;;;18.80;40.90
24486;BME280;13449;49.374;8.584;2023-04-27T12:55:29;100658.09;;;18.64;42.31
24486;BME280;13449;49.374;8.584;2023-04-27T12:58:00;100659.63;;;18.72;41.88
24486;BME280;13449;49.374;8.584;2023-04-27T13:00:26;100655.28;;;18.96;39.25
24486;BME280;13449;49.374;8.584;2023-04-27T13:02:54;100651.31;;;18.50;38.68
24486;BME280;13449;49.374;8.584;2023-04-27T13:05:24;100653.72;;;19.18;41.86
24486;BME280;13449;49.374;8.584;2023-04-27T13:07:51;100658.78;;;18.78;38.38
24486;BME280;13449;49.374;8.584;2023-04-27T13:10:18;100653.31;;;19.03;40.04
24486;BME280;13449;49.374;8.584;2023-04-27T13:12:44;100647.56;;;18.87;39.86
24486;BME280;13449;49.374;8.584;2023-04-27T13:15:13;100646.25;;;19.08;42.56
24486;BME280;13449;49.374;8.584;2023-04-27T13:17:40;100635.69;;;19.02;39.17
24486;BME280;13449;49.374;8.584;2023-04-27T13:20:09;100639.16;;;19.02;40.15
24486;BME280;13449;49.374;8.584;2023-04-27T13:22:37;100638.38;;;19.13;42.01
24486;BME280;13449;49.374;8.584;2023-04-27T13:25:05;100642.09;;;18.82;39.63
24486;BME280;13449;49.374;8.584;2023-04-27T13:27:32;100651.28;;;18.86;39.89